Independence, California
Current Conditions -  °F | °C
As of 9:56 AM on Sunday 21 Dec 2014 (Local Time) from KBIH Reporting Station
Clear Clear  
Wind Chill: 46°   Ceiling: Unl
Heat Index: 46°   Visibility: 10mi
Dew Point: 34°   Wind: 3mph
Humidity: 63%   Direction: 360°N
Pressure: 30.21"   Gusts: NA
Location:  36.8°N, 118.2°W
Report Text: KBIH 211756Z AUTO 36003KT 10SM CLR 08/01 A3021 RMK AO2 SLP225 T00780011 10078 21017 53002
Loading
Personal Weather Stations






























Interactive Weather Map New forecast layout! Learn more

10-Day Weather Forecast

Advertisements
Track Severe Weather on mobile